createdAt,value
2023-02-27T06:32:59.924Z,1.60
2023-02-27T06:35:26.378Z,1.76
2023-02-27T06:49:45.137Z,1.70
2023-02-27T07:04:34.158Z,1.60
2023-02-27T07:34:14.367Z,1.73
2023-02-27T07:49:05.724Z,1.84
2023-02-27T08:03:55.339Z,2.00
2023-02-27T08:18:45.027Z,1.82
2023-02-27T08:33:41.504Z,2.17
2023-02-27T08:48:26.340Z,2.12
2023-02-27T09:03:17.141Z,1.92
2023-02-27T09:18:07.959Z,1.46
2023-02-27T09:32:58.256Z,1.82
2023-02-27T09:47:48.751Z,1.37
2023-02-27T10:02:48.384Z,1.56
2023-02-27T10:17:48.325Z,1.51
2023-02-27T10:32:34.118Z,1.40
2023-02-27T10:47:24.407Z,1.57
2023-02-27T11:02:16.875Z,1.28
2023-02-27T11:17:10.078Z,1.29
2023-02-27T11:32:10.198Z,1.64
2023-02-27T11:47:14.954Z,1.52
2023-02-27T12:02:22.487Z,1.56
2023-02-27T12:17:27.095Z,1.56
2023-02-27T12:32:27.439Z,1.50
2023-02-27T12:47:45.057Z,1.28
2023-02-27T13:02:54.153Z,1.33
2023-02-27T13:17:53.589Z,1.47
2023-02-27T13:33:05.632Z,1.30
2023-02-27T13:48:01.566Z,1.30
2023-02-27T14:03:00.323Z,2.48
2023-02-27T14:17:54.647Z,1.62
2023-02-27T14:32:36.257Z,1.51
2023-02-27T14:47:32.047Z,1.79
2023-02-27T15:02:27.054Z,1.57
2023-02-27T15:17:17.234Z,2.16
2023-02-27T15:32:05.587Z,1.67
2023-02-27T15:46:55.939Z,1.53
2023-02-27T16:01:46.633Z,1.60
2023-02-27T16:16:36.454Z,1.37
2023-02-27T16:31:26.721Z,1.86
2023-02-27T16:46:16.070Z,1.93
2023-02-27T17:01:05.823Z,1.42
2023-02-27T17:15:55.251Z,2.30
2023-02-27T17:30:45.619Z,1.79
2023-02-27T17:45:35.833Z,2.26
2023-02-27T18:00:26.304Z,1.41
2023-02-27T18:15:15.858Z,1.76
2023-02-27T18:30:07.054Z,2.20
2023-02-27T18:44:57.239Z,1.74
2023-02-27T18:59:47.071Z,2.64
2023-02-27T19:14:36.806Z,2.91
2023-02-27T19:29:26.419Z,2.71
2023-02-27T19:44:17.133Z,2.04
2023-02-27T19:59:06.582Z,1.92
2023-02-27T20:13:55.235Z,2.00
2023-02-27T20:28:45.375Z,2.36
2023-02-27T20:43:34.801Z,2.33
2023-02-27T20:58:24.640Z,2.61
2023-02-27T21:13:14.034Z,2.30
2023-02-27T21:28:03.654Z,2.50
2023-02-27T21:42:52.557Z,2.28
2023-02-27T21:57:42.350Z,2.50
2023-02-27T22:12:32.220Z,2.31
2023-02-27T22:27:22.309Z,2.59
2023-02-27T22:42:11.393Z,2.84
2023-02-27T23:11:56.462Z,2.91
